createdAt,value
2022-08-18T04:34:47.882Z,19.27
2022-08-18T04:39:50.228Z,18.58
2022-08-18T04:44:53.064Z,20.25
2022-08-18T04:49:55.381Z,16.58
2022-08-18T04:54:57.751Z,18.85
2022-08-18T05:00:00.117Z,18.23
2022-08-18T05:05:03.905Z,17.48
2022-08-18T05:10:06.518Z,21.52
2022-08-18T05:15:10.239Z,20.20
2022-08-18T05:20:12.688Z,18.60
2022-08-18T05:25:16.161Z,18.30
2022-08-18T05:30:18.642Z,19.25
2022-08-18T05:41:14.058Z,19.83
2022-08-18T05:46:17.217Z,41.55
2022-08-18T05:51:41.290Z,23.13
2022-08-18T05:56:47.440Z,20.93
2022-08-18T06:01:56.269Z,19.67
2022-08-18T06:07:04.315Z,20.87
2022-08-18T06:12:19.549Z,19.38
2022-08-18T06:17:26.253Z,17.80
2022-08-18T06:22:37.713Z,18.75
2022-08-18T06:28:14.204Z,24.27
2022-08-18T06:33:54.866Z,17.33
2022-08-18T06:39:23.517Z,19.67
2022-08-18T06:44:45.566Z,20.63
2022-08-18T06:50:02.834Z,18.27
2022-08-18T06:55:32.806Z,19.63
2022-08-18T07:00:39.124Z,17.23
2022-08-18T07:06:06.241Z,20.83
2022-08-18T07:11:17.216Z,20.27
2022-08-18T07:16:56.670Z,21.15
2022-08-18T07:22:13.551Z,19.45
2022-08-18T07:27:20.123Z,20.67
2022-08-18T07:32:23.934Z,18.08
2022-08-18T07:37:32.450Z,18.70
2022-08-18T07:43:01.519Z,19.30
2022-08-18T07:48:44.384Z,21.98
2022-08-18T07:53:54.467Z,25.20
2022-08-18T07:59:09.350Z,23.95
2022-08-18T08:04:26.600Z,21.23
2022-08-18T08:09:47.157Z,18.80
2022-08-18T08:15:03.971Z,22.77
2022-08-18T08:20:17.854Z,18.30
2022-08-18T08:25:44.692Z,18.52
2022-08-18T08:31:35.344Z,30.77
2022-08-18T08:36:40.264Z,21.73
2022-08-18T08:42:29.521Z,22.95
2022-08-18T08:47:36.457Z,17.88
2022-08-18T08:52:46.360Z,18.52
2022-08-18T08:57:57.494Z,19.10
2022-08-18T09:03:02.465Z,21.75
2022-08-18T09:08:07.745Z,18.90
2022-08-18T09:13:36.216Z,26.33
2022-08-18T09:18:45.528Z,18.92
2022-08-18T09:23:53.759Z,17.92
2022-08-18T09:29:12.959Z,22.73
2022-08-18T09:34:31.792Z,16.67
2022-08-18T09:39:57.726Z,15.77
2022-08-18T09:45:05.604Z,17.05
2022-08-18T09:50:30.177Z,23.58
2022-08-18T09:55:32.438Z,16.08
2022-08-18T10:00:34.882Z,19.85
2022-08-18T10:05:38.679Z,15.30
2022-08-18T10:16:22.178Z,16.98
2022-08-18T10:21:31.292Z,15.50
2022-08-18T10:26:40.875Z,13.45
2022-08-18T10:31:57.406Z,17.70
2022-08-18T10:37:26.866Z,13.70
2022-08-18T10:42:53.938Z,13.07
2022-08-18T10:48:16.650Z,14.25
2022-08-18T10:53:39.391Z,15.68
2022-08-18T10:58:58.489Z,16.27
2022-08-18T11:04:14.179Z,10.95
2022-08-18T11:09:28.226Z,15.65
2022-08-18T11:14:52.700Z,16.50
2022-08-18T11:19:56.029Z,10.98
2022-08-18T11:24:59.724Z,16.88
2022-08-18T11:30:05.883Z,11.20
2022-08-18T11:35:16.255Z,13.32
2022-08-18T11:46:00.321Z,12.65
2022-08-18T11:51:09.274Z,9.73
2022-08-18T11:56:21.239Z,8.85
2022-08-18T12:01:41.514Z,12.98
2022-08-18T12:06:57.947Z,12.60
2022-08-18T12:12:13.771Z,12.95
2022-08-18T12:22:28.141Z,10.07
2022-08-18T12:27:33.774Z,11.98
2022-08-18T12:32:48.939Z,16.38
2022-08-18T12:38:04.965Z,12.23
2022-08-18T12:43:15.711Z,12.57
2022-08-18T12:48:22.310Z,15.73
2022-08-18T12:53:29.993Z,10.13
2022-08-18T12:58:40.727Z,14.00
2022-08-18T13:03:44.739Z,11.32
2022-08-18T13:08:55.376Z,10.35
2022-08-18T13:13:58.678Z,12.50
2022-08-18T13:19:02.071Z,24.15
2022-08-18T13:24:09.795Z,24.30
2022-08-18T13:29:17.559Z,20.55
2022-08-18T13:34:20.590Z,22.13
2022-08-18T13:39:25.085Z,17.67
2022-08-18T13:44:36.870Z,14.65
2022-08-18T13:49:39.279Z,11.80
2022-08-18T13:54:42.483Z,11.93
2022-08-18T13:59:46.501Z,10.05
2022-08-18T14:04:49.516Z,10.95
2022-08-18T14:09:54.328Z,9.98
2022-08-18T14:14:57.160Z,13.55
2022-08-18T14:20:21.686Z,13.15
2022-08-18T14:25:44.914Z,12.57
2022-08-18T14:30:54.178Z,17.25
2022-08-18T14:36:06.447Z,12.00
2022-08-18T14:41:14.432Z,11.82
2022-08-18T14:46:17.275Z,13.70
2022-08-18T14:51:19.759Z,15.07
2022-08-18T14:56:33.787Z,11.63
2022-08-18T15:01:42.792Z,12.60
2022-08-18T15:06:45.390Z,16.30
2022-08-18T15:12:00.172Z,16.30
2022-08-18T15:17:11.769Z,12.32
2022-08-18T15:22:34.328Z,16.52
2022-08-18T15:27:42.186Z,13.68
2022-08-18T15:32:47.161Z,20.97
2022-08-18T15:37:54.759Z,16.73
2022-08-18T15:43:01.542Z,20.20
2022-08-18T15:48:04.498Z,14.77
2022-08-18T15:53:07.946Z,16.10
2022-08-18T15:58:12.888Z,17.67
2022-08-18T16:03:16.896Z,19.60
2022-08-18T16:08:21.589Z,13.43
2022-08-18T16:13:26.448Z,15.05
2022-08-18T16:18:29.549Z,14.05
2022-08-18T16:23:31.931Z,14.13
2022-08-18T16:28:39.302Z,12.98
2022-08-18T16:33:43.241Z,13.85
2022-08-18T16:38:47.190Z,14.35
2022-08-18T16:43:49.836Z,17.60
2022-08-18T16:48:53.514Z,22.92
2022-08-18T16:53:56.124Z,24.17
2022-08-18T16:59:17.236Z,27.00
2022-08-18T17:04:22.954Z,18.90
2022-08-18T17:09:26.112Z,22.67
2022-08-18T17:14:30.382Z,19.02
2022-08-18T17:19:35.362Z,18.33
2022-08-18T17:24:38.450Z,18.08
2022-08-18T17:30:07.079Z,20.05
2022-08-18T17:35:15.590Z,16.63
2022-08-18T17:40:29.730Z,20.42
2022-08-18T17:45:36.345Z,17.00
2022-08-18T17:51:09.808Z,15.60
2022-08-18T17:56:42.559Z,17.77
2022-08-18T18:01:45.027Z,16.90
2022-08-18T18:06:49.435Z,14.48
2022-08-18T18:11:52.535Z,15.55
2022-08-18T18:17:14.495Z,17.05
2022-08-18T18:22:24.197Z,14.65
2022-08-18T18:27:28.938Z,12.85
2022-08-18T18:32:38.581Z,14.95
2022-08-18T18:37:57.370Z,13.90
2022-08-18T18:43:26.019Z,12.45
2022-08-18T18:48:51.107Z,13.32
2022-08-18T18:54:19.208Z,12.38
2022-08-18T18:59:26.729Z,14.02
2022-08-18T19:04:44.924Z,12.27
2022-08-18T19:09:59.873Z,13.25
2022-08-18T19:15:11.649Z,12.50
2022-08-18T19:20:23.461Z,12.75
2022-08-18T19:25:29.038Z,11.88
2022-08-18T19:30:37.053Z,14.38
2022-08-18T19:35:59.092Z,13.32
2022-08-18T19:41:31.859Z,12.18
2022-08-18T19:46:44.944Z,10.73
2022-08-18T19:51:50.485Z,10.68
2022-08-18T19:57:07.374Z,12.85
2022-08-18T20:02:56.064Z,12.77
2022-08-18T20:08:30.836Z,11.65
2022-08-18T20:13:42.545Z,11.27
2022-08-18T20:18:49.540Z,11.15
2022-08-18T20:24:29.552Z,12.27
2022-08-18T20:29:36.310Z,12.17
2022-08-18T20:34:38.765Z,10.90
2022-08-18T20:39:48.461Z,12.38
2022-08-18T20:44:50.939Z,10.68
2022-08-18T20:50:20.360Z,13.20
2022-08-18T20:55:53.106Z,12.10
2022-08-18T21:00:57.372Z,14.23
2022-08-18T21:05:59.886Z,14.48
2022-08-18T21:11:31.906Z,14.30
2022-08-18T21:16:39.789Z,16.70
2022-08-18T21:21:51.736Z,14.63
2022-08-18T21:27:00.001Z,14.68
2022-08-18T21:32:12.193Z,15.65
2022-08-18T21:37:18.204Z,13.27
2022-08-18T21:42:27.596Z,17.45
2022-08-18T21:47:33.627Z,15.13
2022-08-18T21:52:39.799Z,14.25
2022-08-18T21:58:08.623Z,14.98
